sensor_id;sensor_type;location;lat;lon;timestamp;temperature;humidity
22235;DHT22;11286;45.596;5.284;2022-10-29T00:02:24;18.80;99.90
22235;DHT22;11286;45.596;5.284;2022-10-29T00:04:50;18.80;99.90
22235;DHT22;11286;45.596;5.284;2022-10-29T00:07:15;18.60;99.90
22235;DHT22;11286;45.596;5.284;2022-10-29T00:09:41;18.60;99.90
22235;DHT22;11286;45.596;5.284;2022-10-29T00:12:07;18.70;99.90
22235;DHT22;11286;45.596;5.284;2022-10-29T00:14:33;18.70;99.90
22235;DHT22;11286;45.596;5.284;2022-10-29T00:16:58;18.70;99.90
22235;DHT22;11286;45.596;5.284;2022-10-29T00:19:24;18.70;99.90
22235;DHT22;11286;45.596;5.284;2022-10-29T00:21:50;18.60;99.90
22235;DHT22;11286;45.596;5.284;2022-10-29T00:24:16;18.60;99.90
22235;DHT22;11286;45.596;5.284;2022-10-29T00:26:42;18.70;99.90
22235;DHT22;11286;45.596;5.284;2022-10-29T00:29:07;18.60;99.90
22235;DHT22;11286;45.596;5.284;2022-10-29T00:31:33;18.60;99.90
22235;DHT22;11286;45.596;5.284;2022-10-29T00:33:58;18.70;99.90
22235;DHT22;11286;45.596;5.284;2022-10-29T00:36:26;18.70;99.90
22235;DHT22;11286;45.596;5.284;2022-10-29T00:38:53;18.60;99.90
22235;DHT22;11286;45.596;5.284;2022-10-29T00:41:21;18.60;99.90
22235;DHT22;11286;45.596;5.284;2022-10-29T00:43:50;18.60;99.90
22235;DHT22;11286;45.596;5.284;2022-10-29T00:46:30;18.50;99.90
22235;DHT22;11286;45.596;5.284;2022-10-29T00:48:57;18.30;99.90
22235;DHT22;11286;45.596;5.284;2022-10-29T00:51:24;18.30;99.90
22235;DHT22;11286;45.596;5.284;2022-10-29T00:53:57;18.30;99.90
22235;DHT22;11286;45.596;5.284;2022-10-29T00:56:26;18.20;99.90
22235;DHT22;11286;45.596;5.284;2022-10-29T00:58:53;18.10;99.90
22235;DHT22;11286;45.596;5.284;2022-10-29T01:01:19;18.00;99.90
22235;DHT22;11286;45.596;5.284;2022-10-29T01:03:45;18.00;99.90
22235;DHT22;11286;45.596;5.284;2022-10-29T01:06:12;18.10;99.90
22235;DHT22;11286;45.596;5.284;2022-10-29T01:08:38;18.10;99.90
22235;DHT22;11286;45.596;5.284;2022-10-29T01:13:45;18.10;99.90
22235;DHT22;11286;45.596;5.284;2022-10-29T01:34:42;17.80;99.90
22235;DHT22;11286;45.596;5.284;2022-10-29T01:40:06;17.90;99.90
22235;DHT22;11286;45.596;5.284;2022-10-29T01:42:39;17.70;99.90
22235;DHT22;11286;45.596;5.284;2022-10-29T01:45:13;17.80;99.90
22235;DHT22;11286;45.596;5.284;2022-10-29T01:48:04;17.70;99.90
22235;DHT22;11286;45.596;5.284;2022-10-29T01:50:31;17.70;99.90
22235;DHT22;11286;45.596;5.284;2022-10-29T01:52:58;17.60;99.90
22235;DHT22;11286;45.596;5.284;2022-10-29T01:55:29;17.60;99.90
22235;DHT22;11286;45.596;5.284;2022-10-29T01:57:56;17.70;99.90
22235;DHT22;11286;45.596;5.284;2022-10-29T02:00:21;17.70;99.90
22235;DHT22;11286;45.596;5.284;2022-10-29T02:09:11;18.00;99.90
22235;DHT22;11286;45.596;5.284;2022-10-29T02:14:14;17.50;99.90
22235;DHT22;11286;45.596;5.284;2022-10-29T02:16:42;17.40;99.90
22235;DHT22;11286;45.596;5.284;2022-10-29T02:19:08;17.50;99.90
22235;DHT22;11286;45.596;5.284;2022-10-29T02:21:34;17.40;99.90
22235;DHT22;11286;45.596;5.284;2022-10-29T02:24:00;17.30;99.90
22235;DHT22;11286;45.596;5.284;2022-10-29T02:26:25;17.40;99.90
22235;DHT22;11286;45.596;5.284;2022-10-29T02:28:51;17.40;99.90
22235;DHT22;11286;45.596;5.284;2022-10-29T02:31:16;17.50;99.90
22235;DHT22;11286;45.596;5.284;2022-10-29T02:33:42;17.60;99.90
22235;DHT22;11286;45.596;5.284;2022-10-29T02:36:08;17.50;99.90
22235;DHT22;11286;45.596;5.284;2022-10-29T02:38:33;17.50;99.90
22235;DHT22;11286;45.596;5.284;2022-10-29T02:40:59;17.50;99.90
22235;DHT22;11286;45.596;5.284;2022-10-29T02:43:25;17.40;99.90
22235;DHT22;11286;45.596;5.284;2022-10-29T02:46:18;17.50;99.90
22235;DHT22;11286;45.596;5.284;2022-10-29T02:48:44;17.50;99.90
22235;DHT22;11286;45.596;5.284;2022-10-29T02:51:10;17.50;99.90
22235;DHT22;11286;45.596;5.284;2022-10-29T02:53:36;17.40;99.90
22235;DHT22;11286;45.596;5.284;2022-10-29T02:56:04;17.50;99.90
22235;DHT22;11286;45.596;5.284;2022-10-29T02:58:29;17.50;99.90
22235;DHT22;11286;45.596;5.284;2022-10-29T03:00:55;17.40;99.90
22235;DHT22;11286;45.596;5.284;2022-10-29T03:03:20;17.50;99.90
22235;DHT22;11286;45.596;5.284;2022-10-29T03:05:46;17.40;99.90
22235;DHT22;11286;45.596;5.284;2022-10-29T03:08:12;17.40;99.90
22235;DHT22;11286;45.596;5.284;2022-10-29T03:10:37;17.40;99.90
22235;DHT22;11286;45.596;5.284;2022-10-29T03:13:03;17.40;99.90
22235;DHT22;11286;45.596;5.284;2022-10-29T03:15:29;17.40;99.90
22235;DHT22;11286;45.596;5.284;2022-10-29T03:17:54;17.30;99.90
22235;DHT22;11286;45.596;5.284;2022-10-29T03:20:20;17.20;99.90
22235;DHT22;11286;45.596;5.284;2022-10-29T03:22:45;17.20;99.90
22235;DHT22;11286;45.596;5.284;2022-10-29T03:25:11;17.10;99.90
22235;DHT22;11286;45.596;5.284;2022-10-29T03:27:43;17.10;99.90
22235;DHT22;11286;45.596;5.284;2022-10-29T03:30:10;17.20;99.90
22235;DHT22;11286;45.596;5.284;2022-10-29T03:32:43;17.10;99.90
22235;DHT22;11286;45.596;5.284;2022-10-29T03:35:11;17.10;99.90
22235;DHT22;11286;45.596;5.284;2022-10-29T03:37:37;17.20;99.90
22235;DHT22;11286;45.596;5.284;2022-10-29T03:40:03;17.20;99.90
22235;DHT22;11286;45.596;5.284;2022-10-29T03:42:29;17.20;99.90
22235;DHT22;11286;45.596;5.284;2022-10-29T03:44:58;17.20;99.90
22235;DHT22;11286;45.596;5.284;2022-10-29T03:47:24;17.20;99.90
22235;DHT22;11286;45.596;5.284;2022-10-29T03:49:50;17.20;99.90
22235;DHT22;11286;45.596;5.284;2022-10-29T03:52:15;17.20;99.90
22235;DHT22;11286;45.596;5.284;2022-10-29T03:54:41;17.10;99.90
22235;DHT22;11286;45.596;5.284;2022-10-29T03:57:07;17.10;99.90
22235;DHT22;11286;45.596;5.284;2022-10-29T03:59:32;17.10;99.90
22235;DHT22;11286;45.596;5.284;2022-10-29T04:01:58;17.10;99.90
22235;DHT22;11286;45.596;5.284;2022-10-29T04:04:23;17.10;99.90
22235;DHT22;11286;45.596;5.284;2022-10-29T04:06:49;17.30;99.90
22235;DHT22;11286;45.596;5.284;2022-10-29T04:09:14;17.20;99.90
22235;DHT22;11286;45.596;5.284;2022-10-29T04:11:40;17.20;99.90
22235;DHT22;11286;45.596;5.284;2022-10-29T04:14:06;17.20;99.90
22235;DHT22;11286;45.596;5.284;2022-10-29T04:16:31;17.10;99.90
22235;DHT22;11286;45.596;5.284;2022-10-29T04:18:57;17.50;99.90
22235;DHT22;11286;45.596;5.284;2022-10-29T04:21:24;17.20;99.90
22235;DHT22;11286;45.596;5.284;2022-10-29T04:23:50;17.20;99.90
22235;DHT22;11286;45.596;5.284;2022-10-29T04:26:16;17.30;99.90
22235;DHT22;11286;45.596;5.284;2022-10-29T04:28:42;17.30;99.90
22235;DHT22;11286;45.596;5.284;2022-10-29T04:31:11;17.30;99.90
22235;DHT22;11286;45.596;5.284;2022-10-29T04:33:37;17.20;99.90
22235;DHT22;11286;45.596;5.284;2022-10-29T04:36:03;17.20;99.90
22235;DHT22;11286;45.596;5.284;2022-10-29T04:38:29;17.30;99.90
22235;DHT22;11286;45.596;5.284;2022-10-29T04:40:58;17.40;99.90
22235;DHT22;11286;45.596;5.284;2022-10-29T04:43:24;17.30;99.90
22235;DHT22;11286;45.596;5.284;2022-10-29T04:45:57;17.30;99.90
22235;DHT22;11286;45.596;5.284;2022-10-29T04:48:24;17.30;99.90
22235;DHT22;11286;45.596;5.284;2022-10-29T04:50:51;17.30;99.90
22235;DHT22;11286;45.596;5.284;2022-10-29T04:53:17;17.40;99.90
22235;DHT22;11286;45.596;5.284;2022-10-29T04:55:43;17.20;99.90
22235;DHT22;11286;45.596;5.284;2022-10-29T04:58:15;17.10;99.90
22235;DHT22;11286;45.596;5.284;2022-10-29T05:00:41;17.20;99.90
22235;DHT22;11286;45.596;5.284;2022-10-29T05:03:07;17.20;99.90
22235;DHT22;11286;45.596;5.284;2022-10-29T05:05:35;17.30;99.90
22235;DHT22;11286;45.596;5.284;2022-10-29T05:08:02;17.20;99.90
22235;DHT22;11286;45.596;5.284;2022-10-29T05:10:31;17.10;99.90
22235;DHT22;11286;45.596;5.284;2022-10-29T05:15:23;17.10;99.90
22235;DHT22;11286;45.596;5.284;2022-10-29T05:17:49;17.30;99.90
22235;DHT22;11286;45.596;5.284;2022-10-29T05:20:14;17.20;99.90
22235;DHT22;11286;45.596;5.284;2022-10-29T05:22:40;17.20;99.90
22235;DHT22;11286;45.596;5.284;2022-10-29T05:25:06;17.20;99.90
22235;DHT22;11286;45.596;5.284;2022-10-29T05:27:31;17.20;99.90
22235;DHT22;11286;45.596;5.284;2022-10-29T05:29:57;17.10;99.90
22235;DHT22;11286;45.596;5.284;2022-10-29T05:32:23;17.10;99.90
22235;DHT22;11286;45.596;5.284;2022-10-29T05:34:48;17.10;99.90
22235;DHT22;11286;45.596;5.284;2022-10-29T05:37:14;17.10;99.90
22235;DHT22;11286;45.596;5.284;2022-10-29T05:39:39;17.00;99.90
22235;DHT22;11286;45.596;5.284;2022-10-29T05:42:05;17.00;99.90
22235;DHT22;11286;45.596;5.284;2022-10-29T05:44:31;17.00;99.90
22235;DHT22;11286;45.596;5.284;2022-10-29T05:46:56;16.90;99.90
22235;DHT22;11286;45.596;5.284;2022-10-29T05:49:22;16.80;99.90
22235;DHT22;11286;45.596;5.284;2022-10-29T05:51:47;16.80;99.90
22235;DHT22;11286;45.596;5.284;2022-10-29T05:54:13;16.80;99.90
22235;DHT22;11286;45.596;5.284;2022-10-29T05:56:38;16.70;99.90
22235;DHT22;11286;45.596;5.284;2022-10-29T05:59:04;16.70;99.90
22235;DHT22;11286;45.596;5.284;2022-10-29T06:01:30;16.60;99.90
22235;DHT22;11286;45.596;5.284;2022-10-29T06:03:56;16.70;99.90
22235;DHT22;11286;45.596;5.284;2022-10-29T06:06:22;16.70;99.90
22235;DHT22;11286;45.596;5.284;2022-10-29T06:08:47;16.70;99.90
22235;DHT22;11286;45.596;5.284;2022-10-29T06:11:13;16.70;99.90
22235;DHT22;11286;45.596;5.284;2022-10-29T06:13:38;16.70;99.90
22235;DHT22;11286;45.596;5.284;2022-10-29T06:16:04;16.70;99.90
22235;DHT22;11286;45.596;5.284;2022-10-29T06:18:30;16.70;99.90
22235;DHT22;11286;45.596;5.284;2022-10-29T06:20:59;16.80;99.90
22235;DHT22;11286;45.596;5.284;2022-10-29T06:23:25;16.80;99.90
22235;DHT22;11286;45.596;5.284;2022-10-29T06:25:51;16.90;99.90
22235;DHT22;11286;45.596;5.284;2022-10-29T06:28:17;17.00;99.90
22235;DHT22;11286;45.596;5.284;2022-10-29T06:30:48;16.90;99.90
22235;DHT22;11286;45.596;5.284;2022-10-29T06:33:14;16.90;99.90
22235;DHT22;11286;45.596;5.284;2022-10-29T06:35:40;17.00;99.90
22235;DHT22;11286;45.596;5.284;2022-10-29T06:38:05;17.00;99.90
22235;DHT22;11286;45.596;5.284;2022-10-29T06:40:31;17.10;99.90
22235;DHT22;11286;45.596;5.284;2022-10-29T06:43:01;17.20;99.90
22235;DHT22;11286;45.596;5.284;2022-10-29T06:45:28;17.30;99.90
22235;DHT22;11286;45.596;5.284;2022-10-29T06:47:54;17.30;99.90
22235;DHT22;11286;45.596;5.284;2022-10-29T06:50:20;17.40;99.90
22235;DHT22;11286;45.596;5.284;2022-10-29T06:53:05;17.50;99.90
22235;DHT22;11286;45.596;5.284;2022-10-29T06:55:32;17.50;99.90
22235;DHT22;11286;45.596;5.284;2022-10-29T06:58:11;17.60;99.90
22235;DHT22;11286;45.596;5.284;2022-10-29T07:00:37;17.80;99.90
22235;DHT22;11286;45.596;5.284;2022-10-29T07:03:02;17.90;99.90
22235;DHT22;11286;45.596;5.284;2022-10-29T07:05:30;17.90;99.90
22235;DHT22;11286;45.596;5.284;2022-10-29T07:07:56;18.10;99.90
22235;DHT22;11286;45.596;5.284;2022-10-29T07:10:22;18.10;99.90
22235;DHT22;11286;45.596;5.284;2022-10-29T07:12:48;18.30;99.90
22235;DHT22;11286;45.596;5.284;2022-10-29T07:15:13;18.30;99.90
22235;DHT22;11286;45.596;5.284;2022-10-29T07:17:39;18.40;99.90
22235;DHT22;11286;45.596;5.284;2022-10-29T07:20:06;18.60;99.90
22235;DHT22;11286;45.596;5.284;2022-10-29T07:22:32;18.60;99.90
22235;DHT22;11286;45.596;5.284;2022-10-29T07:24:58;18.80;99.90
22235;DHT22;11286;45.596;5.284;2022-10-29T07:27:23;18.90;99.90
22235;DHT22;11286;45.596;5.284;2022-10-29T07:29:49;19.10;99.90
22235;DHT22;11286;45.596;5.284;2022-10-29T07:32:15;19.20;99.90
22235;DHT22;11286;45.596;5.284;2022-10-29T07:34:40;19.40;99.90
22235;DHT22;11286;45.596;5.284;2022-10-29T07:37:06;19.50;99.90
22235;DHT22;11286;45.596;5.284;2022-10-29T07:39:31;19.60;99.90
22235;DHT22;11286;45.596;5.284;2022-10-29T07:41:57;19.80;99.90
22235;DHT22;11286;45.596;5.284;2022-10-29T07:44:23;20.20;99.90
22235;DHT22;11286;45.596;5.284;2022-10-29T07:46:48;20.40;99.90
22235;DHT22;11286;45.596;5.284;2022-10-29T07:49:14;20.50;99.90
22235;DHT22;11286;45.596;5.284;2022-10-29T07:51:40;20.50;99.90
22235;DHT22;11286;45.596;5.284;2022-10-29T07:54:06;20.60;99.90
22235;DHT22;11286;45.596;5.284;2022-10-29T07:56:31;20.60;99.90
22235;DHT22;11286;45.596;5.284;2022-10-29T07:58:57;20.90;99.90
22235;DHT22;11286;45.596;5.284;2022-10-29T08:01:23;21.90;99.90
22235;DHT22;11286;45.596;5.284;2022-10-29T08:03:49;22.50;99.90
22235;DHT22;11286;45.596;5.284;2022-10-29T08:06:15;23.00;99.90
22235;DHT22;11286;45.596;5.284;2022-10-29T08:08:41;23.30;99.90
22235;DHT22;11286;45.596;5.284;2022-10-29T08:11:06;23.90;99.90
22235;DHT22;11286;45.596;5.284;2022-10-29T08:13:32;23.60;99.90
22235;DHT22;11286;45.596;5.284;2022-10-29T08:15:58;23.20;99.90
22235;DHT22;11286;45.596;5.284;2022-10-29T08:18:24;23.50;99.90
22235;DHT22;11286;45.596;5.284;2022-10-29T08:20:49;24.10;99.90
22235;DHT22;11286;45.596;5.284;2022-10-29T08:23:15;24.60;99.90
22235;DHT22;11286;45.596;5.284;2022-10-29T08:25:41;24.90;99.90
22235;DHT22;11286;45.596;5.284;2022-10-29T08:28:12;24.90;99.90
22235;DHT22;11286;45.596;5.284;2022-10-29T08:30:39;25.70;99.90
22235;DHT22;11286;45.596;5.284;2022-10-29T08:33:05;27.60;99.90
22235;DHT22;11286;45.596;5.284;2022-10-29T08:35:31;28.20;99.90
22235;DHT22;11286;45.596;5.284;2022-10-29T08:37:57;28.30;99.90
22235;DHT22;11286;45.596;5.284;2022-10-29T08:40:38;28.00;99.90
22235;DHT22;11286;45.596;5.284;2022-10-29T08:46:21;29.30;99.90
22235;DHT22;11286;45.596;5.284;2022-10-29T08:48:52;29.30;99.90
22235;DHT22;11286;45.596;5.284;2022-10-29T08:51:36;29.90;99.90
22235;DHT22;11286;45.596;5.284;2022-10-29T08:54:03;30.20;99.90
22235;DHT22;11286;45.596;5.284;2022-10-29T08:56:33;28.70;99.90
22235;DHT22;11286;45.596;5.284;2022-10-29T08:59:12;29.10;99.90
22235;DHT22;11286;45.596;5.284;2022-10-29T09:01:39;29.60;99.90
22235;DHT22;11286;45.596;5.284;2022-10-29T09:04:35;29.60;99.90
22235;DHT22;11286;45.596;5.284;2022-10-29T09:09:43;29.50;99.90
22235;DHT22;11286;45.596;5.284;2022-10-29T09:12:31;30.10;99.90
22235;DHT22;11286;45.596;5.284;2022-10-29T09:18:19;32.30;99.90
22235;DHT22;11286;45.596;5.284;2022-10-29T09:20:59;32.60;99.90
22235;DHT22;11286;45.596;5.284;2022-10-29T09:23:46;32.40;99.90
22235;DHT22;11286;45.596;5.284;2022-10-29T09:26:24;33.10;99.90
22235;DHT22;11286;45.596;5.284;2022-10-29T09:31:51;34.40;99.90
22235;DHT22;11286;45.596;5.284;2022-10-29T09:34:36;33.60;99.90
22235;DHT22;11286;45.596;5.284;2022-10-29T09:37:20;33.70;99.90
22235;DHT22;11286;45.596;5.284;2022-10-29T09:39:48;31.70;99.90
22235;DHT22;11286;45.596;5.284;2022-10-29T09:42:19;32.10;99.90
22235;DHT22;11286;45.596;5.284;2022-10-29T09:44:55;32.70;99.90
22235;DHT22;11286;45.596;5.284;2022-10-29T09:50:38;33.60;99.90
22235;DHT22;11286;45.596;5.284;2022-10-29T09:53:04;34.20;99.90
22235;DHT22;11286;45.596;5.284;2022-10-29T09:55:42;34.30;99.90
22235;DHT22;11286;45.596;5.284;2022-10-29T09:58:25;35.10;99.90
22235;DHT22;11286;45.596;5.284;2022-10-29T10:00:52;34.60;99.90
22235;DHT22;11286;45.596;5.284;2022-10-29T10:03:39;35.40;99.90
22235;DHT22;11286;45.596;5.284;2022-10-29T10:06:11;35.40;99.90
22235;DHT22;11286;45.596;5.284;2022-10-29T10:09:00;34.20;99.90
22235;DHT22;11286;45.596;5.284;2022-10-29T10:11:41;34.00;99.90
22235;DHT22;11286;45.596;5.284;2022-10-29T10:14:19;33.30;99.90
22235;DHT22;11286;45.596;5.284;2022-10-29T10:16:46;33.40;99.90
22235;DHT22;11286;45.596;5.284;2022-10-29T10:19:22;32.90;99.90
22235;DHT22;11286;45.596;5.284;2022-10-29T10:22:04;33.90;99.90
22235;DHT22;11286;45.596;5.284;2022-10-29T10:24:35;35.50;99.90
22235;DHT22;11286;45.596;5.284;2022-10-29T10:27:30;34.60;99.90
22235;DHT22;11286;45.596;5.284;2022-10-29T10:30:10;34.40;99.90
22235;DHT22;11286;45.596;5.284;2022-10-29T10:32:36;33.90;99.90
22235;DHT22;11286;45.596;5.284;2022-10-29T10:35:20;33.80;99.90
22235;DHT22;11286;45.596;5.284;2022-10-29T10:37:46;33.80;99.90
22235;DHT22;11286;45.596;5.284;2022-10-29T10:40:22;33.40;99.90
22235;DHT22;11286;45.596;5.284;2022-10-29T10:42:52;34.50;99.90
22235;DHT22;11286;45.596;5.284;2022-10-29T10:45:25;34.50;99.90
22235;DHT22;11286;45.596;5.284;2022-10-29T10:47:55;35.10;99.90
22235;DHT22;11286;45.596;5.284;2022-10-29T10:50:31;34.50;99.90
22235;DHT22;11286;45.596;5.284;2022-10-29T10:52:59;33.60;99.90
22235;DHT22;11286;45.596;5.284;2022-10-29T10:55:52;34.00;99.90
22235;DHT22;11286;45.596;5.284;2022-10-29T10:58:39;34.60;99.90
22235;DHT22;11286;45.596;5.284;2022-10-29T11:01:16;33.40;99.90
22235;DHT22;11286;45.596;5.284;2022-10-29T11:03:54;33.60;99.90
22235;DHT22;11286;45.596;5.284;2022-10-29T11:06:39;35.90;99.90
22235;DHT22;11286;45.596;5.284;2022-10-29T11:09:24;36.00;99.90
22235;DHT22;11286;45.596;5.284;2022-10-29T11:14:50;34.60;99.90
22235;DHT22;11286;45.596;5.284;2022-10-29T11:17:34;34.00;99.90
22235;DHT22;11286;45.596;5.284;2022-10-29T11:20:26;33.50;99.90
22235;DHT22;11286;45.596;5.284;2022-10-29T11:25:44;34.40;99.90
22235;DHT22;11286;45.596;5.284;2022-10-29T11:28:30;33.90;99.90
22235;DHT22;11286;45.596;5.284;2022-10-29T11:31:04;33.30;99.90
22235;DHT22;11286;45.596;5.284;2022-10-29T11:33:55;32.20;99.90
22235;DHT22;11286;45.596;5.284;2022-10-29T11:36:26;32.10;99.90
22235;DHT22;11286;45.596;5.284;2022-10-29T11:39:08;32.80;99.90
22235;DHT22;11286;45.596;5.284;2022-10-29T11:44:37;33.30;99.90
22235;DHT22;11286;45.596;5.284;2022-10-29T11:52:14;32.20;99.90
22235;DHT22;11286;45.596;5.284;2022-10-29T11:57:23;33.20;99.90
22235;DHT22;11286;45.596;5.284;2022-10-29T12:00:19;33.60;99.90
22235;DHT22;11286;45.596;5.284;2022-10-29T12:05:42;34.60;99.90
22235;DHT22;11286;45.596;5.284;2022-10-29T12:16:33;32.00;99.90
22235;DHT22;11286;45.596;5.284;2022-10-29T12:21:51;32.40;99.90
22235;DHT22;11286;45.596;5.284;2022-10-29T12:27:22;31.80;99.90
22235;DHT22;11286;45.596;5.284;2022-10-29T12:29:54;31.10;99.90
22235;DHT22;11286;45.596;5.284;2022-10-29T12:32:37;30.60;99.90
22235;DHT22;11286;45.596;5.284;2022-10-29T12:38:16;31.80;99.90
22235;DHT22;11286;45.596;5.284;2022-10-29T12:40:49;31.80;99.90
22235;DHT22;11286;45.596;5.284;2022-10-29T12:43:29;32.40;99.90
22235;DHT22;11286;45.596;5.284;2022-10-29T12:56:32;32.20;99.90
22235;DHT22;11286;45.596;5.284;2022-10-29T13:01:52;33.00;99.90
22235;DHT22;11286;45.596;5.284;2022-10-29T13:04:31;32.60;99.90
22235;DHT22;11286;45.596;5.284;2022-10-29T13:09:33;30.60;99.90
22235;DHT22;11286;45.596;5.284;2022-10-29T13:12:01;30.00;99.90
22235;DHT22;11286;45.596;5.284;2022-10-29T13:17:36;31.20;99.90
22235;DHT22;11286;45.596;5.284;2022-10-29T13:20:04;31.50;99.90
22235;DHT22;11286;45.596;5.284;2022-10-29T13:27:58;31.70;99.90
22235;DHT22;11286;45.596;5.284;2022-10-29T13:30:26;32.00;99.90
22235;DHT22;11286;45.596;5.284;2022-10-29T13:32:53;32.30;99.90
22235;DHT22;11286;45.596;5.284;2022-10-29T13:43:00;29.90;99.90
22235;DHT22;11286;45.596;5.284;2022-10-29T13:45:27;29.80;99.90
22235;DHT22;11286;45.596;5.284;2022-10-29T13:48:03;29.10;99.90
22235;DHT22;11286;45.596;5.284;2022-10-29T13:50:31;29.30;99.90
22235;DHT22;11286;45.596;5.284;2022-10-29T13:52:59;28.70;99.90
22235;DHT22;11286;45.596;5.284;2022-10-29T13:55:26;28.60;99.90
22235;DHT22;11286;45.596;5.284;2022-10-29T13:58:09;28.60;99.90
22235;DHT22;11286;45.596;5.284;2022-10-29T14:00:37;28.90;99.90
22235;DHT22;11286;45.596;5.284;2022-10-29T14:03:15;28.80;99.90
22235;DHT22;11286;45.596;5.284;2022-10-29T14:05:54;28.50;99.90
22235;DHT22;11286;45.596;5.284;2022-10-29T14:08:52;28.00;99.90
22235;DHT22;11286;45.596;5.284;2022-10-29T14:11:28;27.80;99.90
22235;DHT22;11286;45.596;5.284;2022-10-29T14:13:58;27.70;99.90
22235;DHT22;11286;45.596;5.284;2022-10-29T14:16:32;27.40;99.90
22235;DHT22;11286;45.596;5.284;2022-10-29T14:19:12;27.50;99.90
22235;DHT22;11286;45.596;5.284;2022-10-29T14:21:39;27.30;99.90
22235;DHT22;11286;45.596;5.284;2022-10-29T14:24:07;27.20;99.90
22235;DHT22;11286;45.596;5.284;2022-10-29T14:26:36;27.10;99.90
22235;DHT22;11286;45.596;5.284;2022-10-29T14:29:22;27.30;99.90
22235;DHT22;11286;45.596;5.284;2022-10-29T14:34:40;27.20;99.90
22235;DHT22;11286;45.596;5.284;2022-10-29T14:39:50;27.50;99.90
22235;DHT22;11286;45.596;5.284;2022-10-29T14:42:20;27.70;99.90
22235;DHT22;11286;45.596;5.284;2022-10-29T14:44:51;27.60;99.90
22235;DHT22;11286;45.596;5.284;2022-10-29T14:47:26;27.60;99.90
22235;DHT22;11286;45.596;5.284;2022-10-29T14:49:53;27.50;99.90
22235;DHT22;11286;45.596;5.284;2022-10-29T14:52:56;27.80;99.90
22235;DHT22;11286;45.596;5.284;2022-10-29T14:55:26;27.90;99.90
22235;DHT22;11286;45.596;5.284;2022-10-29T15:00:48;27.70;99.90
22235;DHT22;11286;45.596;5.284;2022-10-29T15:03:19;28.10;99.90
22235;DHT22;11286;45.596;5.284;2022-10-29T15:05:46;28.20;99.90
22235;DHT22;11286;45.596;5.284;2022-10-29T15:08:17;28.30;99.90
22235;DHT22;11286;45.596;5.284;2022-10-29T15:13:33;28.00;99.90
22235;DHT22;11286;45.596;5.284;2022-10-29T15:16:05;28.00;99.90
22235;DHT22;11286;45.596;5.284;2022-10-29T15:18:33;28.20;99.90
22235;DHT22;11286;45.596;5.284;2022-10-29T15:21:00;27.40;99.90
22235;DHT22;11286;45.596;5.284;2022-10-29T15:23:30;27.10;99.90
22235;DHT22;11286;45.596;5.284;2022-10-29T15:26:42;26.80;99.90
22235;DHT22;11286;45.596;5.284;2022-10-29T15:28:54;26.70;99.90
22235;DHT22;11286;45.596;5.284;2022-10-29T15:31:44;26.50;99.90
22235;DHT22;11286;45.596;5.284;2022-10-29T15:34:17;26.10;99.90
22235;DHT22;11286;45.596;5.284;2022-10-29T15:36:49;26.30;99.90
22235;DHT22;11286;45.596;5.284;2022-10-29T15:39:26;26.00;99.90
22235;DHT22;11286;45.596;5.284;2022-10-29T15:41:57;26.10;99.90
22235;DHT22;11286;45.596;5.284;2022-10-29T15:44:39;25.90;99.90
22235;DHT22;11286;45.596;5.284;2022-10-29T15:47:35;25.90;99.90
22235;DHT22;11286;45.596;5.284;2022-10-29T15:50:01;25.80;99.90
22235;DHT22;11286;45.596;5.284;2022-10-29T15:52:30;25.50;99.90
22235;DHT22;11286;45.596;5.284;2022-10-29T15:55:08;25.20;99.90
22235;DHT22;11286;45.596;5.284;2022-10-29T15:57:35;25.30;99.90
22235;DHT22;11286;45.596;5.284;2022-10-29T16:00:05;25.50;99.90
22235;DHT22;11286;45.596;5.284;2022-10-29T16:02:31;25.30;99.90
22235;DHT22;11286;45.596;5.284;2022-10-29T16:04:57;25.00;99.90
22235;DHT22;11286;45.596;5.284;2022-10-29T16:07:23;24.70;99.90
22235;DHT22;11286;45.596;5.284;2022-10-29T16:09:51;24.50;99.90
22235;DHT22;11286;45.596;5.284;2022-10-29T16:12:18;24.20;99.90
22235;DHT22;11286;45.596;5.284;2022-10-29T16:14:43;24.00;99.90
22235;DHT22;11286;45.596;5.284;2022-10-29T16:17:14;23.90;99.90
22235;DHT22;11286;45.596;5.284;2022-10-29T16:19:40;23.70;99.90
22235;DHT22;11286;45.596;5.284;2022-10-29T16:22:15;23.60;99.90
22235;DHT22;11286;45.596;5.284;2022-10-29T16:24:41;23.50;99.90
22235;DHT22;11286;45.596;5.284;2022-10-29T16:27:15;23.40;99.90
22235;DHT22;11286;45.596;5.284;2022-10-29T16:29:41;23.30;99.90
22235;DHT22;11286;45.596;5.284;2022-10-29T16:32:12;23.10;99.90
22235;DHT22;11286;45.596;5.284;2022-10-29T16:34:39;23.00;99.90
22235;DHT22;11286;45.596;5.284;2022-10-29T16:37:04;22.80;99.90
22235;DHT22;11286;45.596;5.284;2022-10-29T16:39:31;22.60;99.90
22235;DHT22;11286;45.596;5.284;2022-10-29T16:41:56;22.60;99.90
22235;DHT22;11286;45.596;5.284;2022-10-29T16:44:22;22.50;99.90
22235;DHT22;11286;45.596;5.284;2022-10-29T16:46:47;22.40;99.90
22235;DHT22;11286;45.596;5.284;2022-10-29T16:49:13;22.30;99.90
22235;DHT22;11286;45.596;5.284;2022-10-29T16:51:39;22.40;99.90
22235;DHT22;11286;45.596;5.284;2022-10-29T16:54:04;22.20;99.90
22235;DHT22;11286;45.596;5.284;2022-10-29T16:56:30;22.20;99.90
22235;DHT22;11286;45.596;5.284;2022-10-29T16:58:56;22.10;99.90
22235;DHT22;11286;45.596;5.284;2022-10-29T17:01:23;22.00;99.90
22235;DHT22;11286;45.596;5.284;2022-10-29T17:03:51;21.90;99.90
22235;DHT22;11286;45.596;5.284;2022-10-29T17:06:17;21.90;99.90
22235;DHT22;11286;45.596;5.284;2022-10-29T17:08:42;21.80;99.90
22235;DHT22;11286;45.596;5.284;2022-10-29T17:11:08;21.70;99.90
22235;DHT22;11286;45.596;5.284;2022-10-29T17:13:34;21.70;99.90
22235;DHT22;11286;45.596;5.284;2022-10-29T17:16:11;21.60;99.90
22235;DHT22;11286;45.596;5.284;2022-10-29T17:18:40;21.50;99.90
22235;DHT22;11286;45.596;5.284;2022-10-29T17:21:06;21.40;99.90
22235;DHT22;11286;45.596;5.284;2022-10-29T17:23:32;21.30;99.90
22235;DHT22;11286;45.596;5.284;2022-10-29T17:25:58;21.40;99.90
22235;DHT22;11286;45.596;5.284;2022-10-29T17:28:25;21.30;99.90
22235;DHT22;11286;45.596;5.284;2022-10-29T17:30:51;21.40;99.90
22235;DHT22;11286;45.596;5.284;2022-10-29T17:33:17;21.30;99.90
22235;DHT22;11286;45.596;5.284;2022-10-29T17:35:43;21.30;99.90
22235;DHT22;11286;45.596;5.284;2022-10-29T17:38:09;21.30;99.90
22235;DHT22;11286;45.596;5.284;2022-10-29T17:40:35;21.20;99.90
22235;DHT22;11286;45.596;5.284;2022-10-29T17:43:01;21.20;99.90
22235;DHT22;11286;45.596;5.284;2022-10-29T17:45:27;21.10;99.90
22235;DHT22;11286;45.596;5.284;2022-10-29T17:47:56;21.10;99.90
22235;DHT22;11286;45.596;5.284;2022-10-29T17:50:23;21.00;99.90
22235;DHT22;11286;45.596;5.284;2022-10-29T17:52:51;21.00;99.90
22235;DHT22;11286;45.596;5.284;2022-10-29T17:55:17;21.00;99.90
22235;DHT22;11286;45.596;5.284;2022-10-29T17:57:43;20.90;99.90